Time;durP1;ratioP1;P1;durP2;ratioP2;P2;SDS_P1;SDS_P2;PMS_P1;PMS_P2;Temp;Humidity;BMP_temperature;BMP_pressure;BME280_temperature;BME280_humidity;BME280_pressure;Samples;Min_cycle;Max_cycle;Signal;HPM_P1;HPM_P2
2021/12/27 00:01:06;;;;;;;138.63;65.70;;;;;;;3.96;75.75;99511.47;3152124;28;20063;-74
2021/12/27 00:02:39;;;;;;;134.10;66.40;;;;;;;3.96;75.67;99512.31;3154241;28;20055;-74
2021/12/27 00:04:10;;;;;;;137.20;66.40;;;;;;;3.94;75.70;99514.09;3156624;28;20058;-74
2021/12/27 00:05:42;;;;;;;143.05;65.88;;;;;;;3.95;75.69;99512.38;3155305;28;20298;-73
2021/12/27 00:07:16;;;;;;;136.07;66.25;;;;;;;4.01;75.55;99514.81;3155721;28;20105;-71
2021/12/27 00:08:47;;;;;;;139.40;65.10;;;;;;;4.00;75.44;99510.53;3156196;28;20047;-74
2021/12/27 00:10:19;;;;;;;139.93;66.13;;;;;;;4.04;75.44;99509.56;3155071;28;20114;-74
2021/12/27 00:11:51;;;;;;;134.32;67.13;;;;;;;4.04;75.38;99514.72;3154800;28;20063;-72
2021/12/27 00:13:23;;;;;;;135.02;65.70;;;;;;;4.05;75.51;99521.56;3155904;28;20056;-73
2021/12/27 00:14:55;;;;;;;134.02;65.05;;;;;;;4.06;75.38;99528.44;3155501;28;20040;-73
2021/12/27 00:16:27;;;;;;;141.25;67.05;;;;;;;4.05;75.50;99512.13;3155881;28;20119;-73
2021/12/27 00:17:59;;;;;;;138.55;66.03;;;;;;;4.06;75.33;99510.41;3154533;28;20437;-72
2021/12/27 00:19:31;;;;;;;140.20;67.68;;;;;;;4.06;75.21;99513.81;3154528;28;20045;-72
2021/12/27 00:21:04;;;;;;;135.35;64.22;;;;;;;4.07;75.33;99523.22;3156246;28;20051;-72
2021/12/27 00:22:37;;;;;;;144.32;66.63;;;;;;;4.10;75.19;99519.75;3154931;28;20824;-72
2021/12/27 00:24:09;;;;;;;127.97;65.50;;;;;;;4.08;75.23;99531.81;3153243;28;20044;-72
2021/12/27 00:25:39;;;;;;;132.90;62.58;;;;;;;4.10;75.11;99530.88;3155425;28;20434;-72
2021/12/27 00:27:11;;;;;;;134.95;64.30;;;;;;;4.12;74.94;99519.72;3155302;28;20181;-72
2021/12/27 00:28:43;;;;;;;132.52;63.97;;;;;;;4.12;75.10;99506.84;3154885;28;20108;-72
2021/12/27 00:30:15;;;;;;;136.77;65.22;;;;;;;4.13;75.04;99511.09;3155326;28;20101;-72
2021/12/27 00:31:47;;;;;;;128.95;63.72;;;;;;;4.12;74.96;99517.16;3153426;28;20067;-72
2021/12/27 00:33:19;;;;;;;132.93;64.80;;;;;;;4.11;75.00;99513.69;3155864;28;20058;-72
2021/12/27 00:34:51;;;;;;;131.02;62.78;;;;;;;4.09;74.91;99511.16;3154914;28;20109;-72
2021/12/27 00:36:23;;;;;;;124.60;60.75;;;;;;;4.10;74.83;99517.16;3154321;28;20211;-71
2021/12/27 00:37:56;;;;;;;131.27;64.70;;;;;;;3.53;74.78;99419.75;3155250;28;20044;-73
2021/12/27 00:39:28;;;;;;;129.50;62.47;;;;;;;4.06;74.76;99508.66;3153787;28;20939;-73
2021/12/27 00:41:00;;;;;;;134.18;65.13;;;;;;;4.02;75.02;99507.06;3153232;28;20436;-73
2021/12/27 00:42:32;;;;;;;132.95;62.60;;;;;;;4.02;74.96;99509.63;3155275;28;20499;-73
2021/12/27 00:44:04;;;;;;;135.88;64.72;;;;;;;3.98;74.80;99494.25;3154613;28;20040;-72
2021/12/27 00:45:36;;;;;;;134.73;64.57;;;;;;;4.04;74.82;99514.72;3154682;28;20461;-72
2021/12/27 00:47:08;;;;;;;129.02;61.90;;;;;;;4.02;74.67;99501.03;3154597;28;20148;-72
2021/12/27 00:48:40;;;;;;;130.10;60.63;;;;;;;4.01;74.71;99496.78;3154212;28;20120;-72
2021/12/27 00:50:12;;;;;;;126.90;62.95;;;;;;;3.86;74.71;99473.06;3155809;28;20047;-72
2021/12/27 00:51:44;;;;;;;130.25;63.60;;;;;;;3.98;74.79;99491.69;3153616;28;20039;-72
2021/12/27 00:53:17;;;;;;;122.28;59.15;;;;;;;3.98;74.64;99479.66;3154382;28;20048;-72
2021/12/27 00:54:49;;;;;;;128.52;62.47;;;;;;;3.87;74.56;99466.16;3155515;28;20101;-72
2021/12/27 00:56:21;;;;;;;128.88;64.00;;;;;;;3.95;74.82;99491.75;3154703;28;20052;-72
2021/12/27 00:57:53;;;;;;;118.93;60.08;;;;;;;3.94;74.82;99513.25;3154875;28;20076;-74
2021/12/27 00:59:25;;;;;;;122.57;59.72;;;;;;;3.87;74.92;99510.81;3155807;28;20537;-73
2021/12/27 01:00:57;;;;;;;126.07;60.33;;;;;;;3.93;74.96;99524.44;3154281;28;20077;-73
2021/12/27 01:02:30;;;;;;;122.60;61.05;;;;;;;3.91;74.87;99503.88;3156392;28;20060;-73
2021/12/27 01:04:01;;;;;;;120.07;59.22;;;;;;;3.92;74.92;99484.09;3155737;28;20051;-73
2021/12/27 01:05:33;;;;;;;122.47;60.45;;;;;;;3.81;74.80;99458.56;3155066;28;20051;-73
2021/12/27 01:07:04;;;;;;;124.20;60.28;;;;;;;3.86;74.77;99473.06;3156471;28;20052;-73
2021/12/27 01:08:37;;;;;;;122.18;59.78;;;;;;;3.87;74.85;99469.59;3155810;28;20048;-73
2021/12/27 01:10:33;;;;;;;130.38;59.70;;;;;;;3.88;74.82;99478.19;3156325;28;20048;-73
2021/12/27 01:12:23;;;;;;;130.02;58.00;;;;;;;3.75;75.12;99475.00;3154551;28;20132;-73
2021/12/27 01:14:04;;;;;;;127.28;58.50;;;;;;;3.61;75.19;99464.19;3154873;28;20127;-73
2021/12/27 01:15:48;;;;;;;123.22;58.65;;;;;;;3.64;75.30;99472.69;3150818;28;20466;-74
2021/12/27 01:17:20;;;;;;;123.25;59.63;;;;;;;3.76;75.54;99486.19;3152693;28;20219;-73
2021/12/27 01:18:53;;;;;;;118.35;57.72;;;;;;;3.77;75.37;99485.28;3156503;28;20102;-73
2021/12/27 01:20:26;;;;;;;121.13;57.72;;;;;;;3.80;75.28;99491.22;3155305;28;20504;-73
2021/12/27 01:21:58;;;;;;;118.35;56.05;;;;;;;3.75;75.37;99492.19;3155877;28;20132;-72
2021/12/27 01:23:29;;;;;;;127.07;59.92;;;;;;;3.79;75.42;99502.41;3157064;28;20070;-72
2021/12/27 01:25:03;;;;;;;123.35;58.42;;;;;;;3.70;75.49;99479.44;3154096;28;20044;-72
2021/12/27 01:26:35;;;;;;;113.82;56.20;;;;;;;3.72;75.41;99492.28;3156400;28;20059;-72
2021/12/27 01:28:06;;;;;;;122.50;58.55;;;;;;;3.79;75.51;99491.28;3155727;28;20043;-67
2021/12/27 01:29:38;;;;;;;120.55;55.75;;;;;;;3.83;75.38;99477.44;3155688;28;20044;-72
2021/12/27 01:31:11;;;;;;;123.80;59.42;;;;;;;3.85;75.36;99480.81;3156391;28;20105;-71
2021/12/27 01:32:46;;;;;;;124.07;60.10;;;;;;;3.83;75.41;99486.00;3155396;28;20448;-71
2021/12/27 01:34:18;;;;;;;126.32;59.92;;;;;;;3.82;75.55;99478.31;3150359;28;20040;-73
2021/12/27 01:35:50;;;;;;;120.32;57.10;;;;;;;3.82;75.50;99478.31;3154262;28;20598;-72
2021/12/27 01:37:23;;;;;;;120.97;58.28;;;;;;;3.39;75.39;99420.88;3154239;28;20099;-72
2021/12/27 01:38:54;;;;;;;108.53;54.70;;;;;;;3.84;75.55;99500.56;3150785;28;20054;-72
2021/12/27 01:40:28;;;;;;;111.25;53.55;;;;;;;3.82;75.46;99478.31;3152026;28;20048;-70
2021/12/27 01:41:59;;;;;;;115.70;54.08;;;;;;;3.35;75.66;99408.13;3155663;28;20040;-73
2021/12/27 01:43:33;;;;;;;108.75;52.22;;;;;;;3.85;75.58;99485.97;3151553;28;20063;-72
2021/12/27 01:45:06;;;;;;;114.53;52.45;;;;;;;3.80;75.71;99475.75;3155764;28;20078;-71
2021/12/27 01:46:39;;;;;;;108.18;53.78;;;;;;;3.81;75.66;99476.59;3151998;28;20049;-71
2021/12/27 01:48:13;;;;;;;110.28;51.60;;;;;;;3.83;75.65;99464.56;3156353;28;20071;-71
2021/12/27 01:49:44;;;;;;;113.20;52.22;;;;;;;3.76;75.62;99461.28;3154112;28;20093;-72
2021/12/27 01:51:18;;;;;;;108.72;52.92;;;;;;;3.86;75.62;99465.31;3152968;28;20359;-73
2021/12/27 01:52:49;;;;;;;110.93;51.92;;;;;;;3.86;75.53;99464.47;3155680;28;20143;-73
2021/12/27 01:54:21;;;;;;;106.90;52.38;;;;;;;3.84;75.51;99456.78;3154827;28;20142;-72
2021/12/27 01:55:56;;;;;;;114.65;55.47;;;;;;;3.87;75.41;99461.88;3153567;28;20110;-70
2021/12/27 01:57:28;;;;;;;123.03;56.03;;;;;;;3.86;75.50;99474.78;3155593;28;20130;-73
2021/12/27 01:59:00;;;;;;;112.40;53.90;;;;;;;3.86;75.54;99469.63;3153471;28;20040;-72
2021/12/27 02:00:32;;;;;;;114.20;53.95;;;;;;;3.80;75.45;99464.63;3154840;28;20140;-70
2021/12/27 02:02:05;;;;;;;107.80;51.95;;;;;;;3.39;75.15;99399.47;3154275;28;20124;-70
2021/12/27 02:03:37;;;;;;;113.22;53.03;;;;;;;3.86;75.43;99479.94;3153721;28;20048;-69
2021/12/27 02:05:09;;;;;;;101.15;50.83;;;;;;;3.80;75.63;99467.19;3155905;28;20535;-71
2021/12/27 02:06:41;;;;;;;108.70;53.53;;;;;;;3.87;75.61;99474.75;3155305;28;20048;-70
2021/12/27 02:08:13;;;;;;;105.60;50.40;;;;;;;3.82;75.54;99458.56;3154811;28;20105;-73
2021/12/27 02:09:56;;;;;;;102.82;51.53;;;;;;;3.85;75.55;99455.91;3155354;28;20393;-70
2021/12/27 02:11:34;;;;;;;107.90;51.90;;;;;;;3.83;75.58;99451.66;3155423;28;20440;-74
2021/12/27 02:13:06;;;;;;;99.82;51.20;;;;;;;3.73;75.53;99445.91;3158051;28;20105;-73
2021/12/27 02:14:38;;;;;;;107.45;50.78;;;;;;;3.80;75.59;99457.75;3157151;28;20044;-73
2021/12/27 02:16:10;;;;;;;108.88;53.38;;;;;;;3.84;75.46;99461.09;3150740;28;20067;-72
2021/12/27 02:17:44;;;;;;;109.07;51.42;;;;;;;3.83;75.49;99454.25;3150731;28;20440;-72
2021/12/27 02:19:16;;;;;;;111.72;52.90;;;;;;;3.76;75.50;99455.28;3156645;28;20040;-71
2021/12/27 02:20:49;;;;;;;108.78;52.58;;;;;;;3.74;75.42;99457.03;3150895;28;20482;-72
2021/12/27 02:22:22;;;;;;;113.55;54.10;;;;;;;3.77;75.51;99455.22;3157393;28;20067;-71
2021/12/27 02:23:55;;;;;;;113.13;55.33;;;;;;;3.33;75.64;99376.44;3154926;28;20052;-72
2021/12/27 02:25:28;;;;;;;;;;;;;;;3.40;75.64;99414.88;3155031;28;20051;-71
2021/12/27 02:26:59;;;;;;;110.07;50.22;;;;;;;3.58;75.85;99436.78;3156573;28;20383;-72
2021/12/27 02:28:32;;;;;;;120.00;52.95;;;;;;;3.30;75.73;99382.50;3152880;28;20067;-72
2021/12/27 02:30:07;;;;;;;115.45;52.83;;;;;;;3.48;75.53;99396.66;3157844;28;20514;-72
2021/12/27 02:31:41;;;;;;;113.22;54.13;;;;;;;3.71;75.58;99439.91;3156810;28;20120;-72
2021/12/27 02:33:14;;;;;;;111.32;53.97;;;;;;;3.72;75.65;99441.59;3154127;28;20500;-72
2021/12/27 02:34:45;;;;;;;116.18;53.15;;;;;;;3.72;75.58;99446.75;3156797;28;20097;-72
2021/12/27 02:36:19;;;;;;;106.82;52.83;;;;;;;3.71;75.39;99445.06;3156454;28;20588;-71
2021/12/27 02:37:53;;;;;;;108.18;53.13;;;;;;;3.70;75.26;99438.25;3155646;28;20051;-71
2021/12/27 02:39:25;;;;;;;106.57;51.25;;;;;;;3.68;75.39;99434.00;3157048;28;20535;-71
2021/12/27 02:40:58;;;;;;;119.63;53.88;;;;;;;3.67;75.32;99438.31;3154226;28;20086;-72
2021/12/27 02:42:29;;;;;;;114.55;54.17;;;;;;;3.64;75.30;99434.06;3158299;28;20134;-71
2021/12/27 02:44:00;;;;;;;112.97;54.17;;;;;;;3.52;75.25;99413.75;3157150;28;20048;-72
2021/12/27 02:45:34;;;;;;;113.30;53.10;;;;;;;3.62;75.22;99432.41;3155815;28;20048;-70
2021/12/27 02:47:06;;;;;;;104.10;50.53;;;;;;;3.62;75.25;99435.00;3157786;28;20444;-72
2021/12/27 02:48:41;;;;;;;110.90;50.75;;;;;;;3.60;75.26;99440.16;3157298;28;20048;-72
2021/12/27 02:50:12;;;;;;;100.53;50.53;;;;;;;3.57;75.21;99439.38;3156424;28;20108;-72
2021/12/27 02:51:45;;;;;;;98.45;48.30;;;;;;;3.54;75.20;99442.03;3157732;28;20100;-72
2021/12/27 02:53:18;;;;;;;114.53;51.80;;;;;;;3.54;75.41;99450.59;3156172;28;20056;-72
2021/12/27 02:54:50;;;;;;;108.30;51.22;;;;;;;3.52;75.48;99446.34;3158288;28;20048;-72
2021/12/27 02:56:22;;;;;;;99.47;48.83;;;;;;;3.50;75.34;99450.72;3155873;28;20530;-72
2021/12/27 02:57:54;;;;;;;100.57;48.22;;;;;;;3.51;75.32;99454.97;3156926;28;20048;-71
2021/12/27 02:59:25;;;;;;;97.07;48.50;;;;;;;3.51;75.40;99444.66;3151311;28;20048;-72
2021/12/27 03:00:59;;;;;;;106.05;52.08;;;;;;;3.50;75.46;99435.25;3156532;28;20044;-72
2021/12/27 03:02:30;;;;;;;101.55;51.20;;;;;;;3.46;75.47;99434.50;3151424;28;20052;-72
2021/12/27 03:04:02;;;;;;;114.75;54.63;;;;;;;3.47;75.38;99437.91;3157743;28;20551;-72
2021/12/27 03:05:33;;;;;;;116.20;52.85;;;;;;;3.46;75.50;99438.78;3154560;28;20051;-72
2021/12/27 03:07:07;;;;;;;102.57;50.35;;;;;;;3.45;75.42;99435.34;3154008;28;20052;-72
2021/12/27 03:08:40;;;;;;;106.78;51.65;;;;;;;3.20;75.63;99393.88;3156730;28;20493;-72
2021/12/27 03:10:13;;;;;;;110.15;51.97;;;;;;;3.32;75.80;99421.91;3155833;28;20044;-72
2021/12/27 03:11:45;;;;;;;112.47;52.58;;;;;;;3.37;75.84;99432.97;3156646;28;20044;-72
2021/12/27 03:13:18;;;;;;;108.97;51.42;;;;;;;3.16;75.81;99407.66;3156975;28;20040;-72
2021/12/27 03:14:50;;;;;;;108.05;51.92;;;;;;;3.40;75.75;99430.31;3155224;28;20200;-72
2021/12/27 03:16:24;;;;;;;114.07;53.70;;;;;;;3.42;75.75;99428.53;3157200;28;20383;-72
2021/12/27 03:17:55;;;;;;;110.38;52.30;;;;;;;3.41;75.67;99434.59;3155738;28;20101;-71
2021/12/27 03:19:27;;;;;;;107.00;50.50;;;;;;;3.39;75.81;99427.78;3157655;28;20680;-72
2021/12/27 03:20:59;;;;;;;114.70;53.95;;;;;;;3.40;75.70;99439.75;3156996;28;20105;-72
2021/12/27 03:22:33;;;;;;;114.35;54.75;;;;;;;3.41;75.73;99432.00;3161011;28;20048;-71
2021/12/27 03:24:06;;;;;;;116.13;56.55;;;;;;;3.40;75.75;99430.31;3156907;28;20610;-72
2021/12/27 03:25:39;;;;;;;113.45;53.45;;;;;;;3.37;75.70;99440.69;3156433;28;20052;-72
2021/12/27 03:27:10;;;;;;;108.80;54.10;;;;;;;3.33;75.94;99439.03;3151720;28;20070;-72
2021/12/27 03:28:43;;;;;;;112.07;53.65;;;;;;;2.86;75.85;99366.28;3157286;28;20441;-72
2021/12/27 03:30:16;;;;;;;112.25;53.63;;;;;;;3.35;76.00;99436.44;3154466;28;20401;-71
2021/12/27 03:31:49;;;;;;;116.55;53.97;;;;;;;3.37;75.92;99440.69;3154442;28;20080;-71
2021/12/27 03:33:22;;;;;;;110.20;52.35;;;;;;;3.39;75.86;99438.91;3156894;28;20063;-72
2021/12/27 03:34:57;;;;;;;106.88;51.70;;;;;;;3.41;75.87;99447.44;3157390;28;20040;-71
2021/12/27 03:36:29;;;;;;;106.30;49.97;;;;;;;3.42;75.85;99451.72;3156968;28;20102;-72
2021/12/27 03:38:04;;;;;;;101.13;50.88;;;;;;;3.42;75.76;99440.56;3155992;28;20062;-72
2021/12/27 03:40:00;;;;;;;111.38;51.28;;;;;;;3.39;75.79;99445.78;3152781;28;20048;-72
2021/12/27 03:41:32;;;;;;;100.05;49.80;;;;;;;3.35;76.31;99436.44;3147369;28;20056;-72
2021/12/27 03:43:05;;;;;;;107.40;51.33;;;;;;;3.38;76.05;99426.94;3147315;28;20163;-72
2021/12/27 03:44:36;;;;;;;103.90;51.70;;;;;;;3.39;75.90;99436.34;3148479;28;20138;-72
2021/12/27 03:46:09;;;;;;;104.32;50.25;;;;;;;3.45;76.00;99437.09;3146679;28;20048;-72
2021/12/27 03:47:41;;;;;;;108.22;51.95;;;;;;;3.45;75.96;99445.66;3145692;28;20139;-72
2021/12/27 03:49:13;;;;;;;107.10;51.28;;;;;;;3.41;75.85;99439.72;3148509;28;20570;-72
2021/12/27 03:50:45;;;;;;;115.03;53.92;;;;;;;3.50;75.83;99453.28;3147781;28;20066;-72
2021/12/27 03:52:17;;;;;;;107.40;51.35;;;;;;;3.50;75.78;99448.97;3147361;28;20137;-72
2021/12/27 03:53:51;;;;;;;108.93;53.00;;;;;;;3.52;75.73;99456.66;3146780;28;20054;-72
2021/12/27 03:55:24;;;;;;;113.75;52.20;;;;;;;3.41;75.79;99434.59;3147200;28;20170;-72
2021/12/27 03:56:56;;;;;;;109.38;52.95;;;;;;;3.44;75.67;99438.81;3148136;28;20067;-72
2021/12/27 03:58:31;;;;;;;105.53;52.47;;;;;;;3.49;75.72;99452.44;3147786;28;20056;-70
2021/12/27 04:00:28;;;;;;;109.35;52.65;;;;;;;3.51;75.66;99454.97;3145682;28;20044;-72
2021/12/27 04:02:00;;;;;;;111.97;52.05;;;;;;;3.42;75.80;99472.31;3143305;28;20370;-72
2021/12/27 04:03:31;;;;;;;111.30;52.00;;;;;;;3.46;75.72;99457.66;3145949;28;20055;-71
2021/12/27 04:05:04;;;;;;;107.88;49.85;;;;;;;3.07;75.61;99397.56;3148435;28;20052;-71
2021/12/27 04:06:36;;;;;;;104.30;51.90;;;;;;;3.40;75.56;99448.34;3144238;28;20054;-72
2021/12/27 04:08:10;;;;;;;104.25;52.05;;;;;;;3.41;75.60;99452.59;3147248;28;20058;-71
2021/12/27 04:09:44;;;;;;;115.00;53.38;;;;;;;3.46;75.59;99454.22;3147249;28;20047;-69
2021/12/27 04:11:16;;;;;;;105.80;51.10;;;;;;;3.45;75.48;99452.53;3146589;28;20133;-71
2021/12/27 04:12:48;;;;;;;107.78;51.42;;;;;;;3.39;75.55;99441.47;3148212;28;20051;-71
2021/12/27 04:14:20;;;;;;;101.00;50.65;;;;;;;3.40;75.50;99444.91;3146137;28;20052;-71
2021/12/27 04:15:53;;;;;;;104.85;49.38;;;;;;;3.45;75.57;99447.38;3146492;28;20048;-72
2021/12/27 04:17:25;;;;;;;105.95;50.45;;;;;;;3.44;75.46;99446.53;3147194;28;20103;-71
2021/12/27 04:18:57;;;;;;;93.85;48.75;;;;;;;3.46;75.53;99456.78;3146880;28;20058;-71
2021/12/27 04:20:28;;;;;;;93.63;48.22;;;;;;;3.48;75.37;99457.63;3141566;28;20048;-71
2021/12/27 04:21:59;;;;;;;94.70;49.35;;;;;;;3.48;75.38;99452.47;3146961;28;20062;-70
2021/12/27 04:23:31;;;;;;;102.38;50.15;;;;;;;3.49;75.74;99454.16;3147153;28;20654;-71
2021/12/27 04:25:05;;;;;;;99.22;49.28;;;;;;;3.47;75.42;99456.78;3141956;28;20047;-71
2021/12/27 04:26:38;;;;;;;98.43;48.03;;;;;;;3.51;75.45;99454.97;3147547;28;20063;-70
2021/12/27 04:28:09;;;;;;;100.13;50.03;;;;;;;3.51;75.41;99457.53;3146149;28;20055;-73
2021/12/27 04:29:41;;;;;;;97.75;48.10;;;;;;;3.52;75.44;99448.94;3142110;28;20047;-73
2021/12/27 04:31:14;;;;;;;100.60;47.90;;;;;;;3.52;75.48;99449.81;3146026;28;20052;-73
2021/12/27 04:32:47;;;;;;;94.75;48.70;;;;;;;3.54;75.42;99452.31;3143764;28;20052;-72
2021/12/27 04:34:19;;;;;;;96.97;47.83;;;;;;;3.55;75.50;99446.28;3147584;28;20389;-72
2021/12/27 04:35:52;;;;;;;92.65;47.72;;;;;;;3.56;75.49;99440.28;3145990;28;20080;-72
2021/12/27 04:37:24;;;;;;;103.20;49.28;;;;;;;3.30;75.38;99390.22;3147281;28;20135;-72
2021/12/27 04:38:56;;;;;;;96.10;46.60;;;;;;;3.58;75.49;99434.22;3147809;28;20257;-72
2021/12/27 04:40:33;;;;;;;98.22;47.88;;;;;;;3.50;75.20;99410.38;3145614;28;20046;-72
2021/12/27 04:42:07;;;;;;;97.20;47.92;;;;;;;3.50;75.30;99407.78;3143772;28;20463;-72
2021/12/27 04:43:40;;;;;;;98.47;47.53;;;;;;;3.61;75.17;99428.16;3146417;28;20056;-72
2021/12/27 04:45:14;;;;;;;96.70;48.72;;;;;;;3.49;75.13;99418.09;3146870;28;20052;-72
2021/12/27 04:46:46;;;;;;;100.95;47.03;;;;;;;3.61;75.18;99428.16;3147738;28;20138;-72
2021/12/27 04:48:20;;;;;;;95.75;48.17;;;;;;;3.61;75.16;99415.28;3146300;28;20052;-72
2021/12/27 04:49:52;;;;;;;98.93;48.03;;;;;;;3.60;75.25;99429.00;3144499;28;20044;-72
2021/12/27 04:51:25;;;;;;;98.10;48.50;;;;;;;3.61;75.17;99425.59;3146635;28;20059;-72
2021/12/27 04:52:57;;;;;;;101.53;49.15;;;;;;;3.58;75.10;99417.91;3146433;28;20497;-72
2021/12/27 04:54:29;;;;;;;108.25;51.22;;;;;;;3.60;75.12;99429.84;3146846;28;20561;-72
2021/12/27 04:56:02;;;;;;;101.55;53.42;;;;;;;3.60;74.97;99426.44;3147245;28;20055;-71
2021/12/27 04:57:34;;;;;;;101.63;51.03;;;;;;;3.48;74.95;99411.28;3146285;28;20051;-71
2021/12/27 04:59:06;;;;;;;101.90;51.40;;;;;;;3.56;75.06;99423.09;3147395;28;20078;-72
2021/12/27 05:00:39;;;;;;;99.70;51.33;;;;;;;3.56;74.93;99422.25;3145645;28;20548;-71
2021/12/27 05:02:11;;;;;;;109.40;52.72;;;;;;;3.42;75.05;99405.38;3146276;28;20048;-72
2021/12/27 05:03:43;;;;;;;108.07;50.97;;;;;;;3.53;75.07;99424.91;3147719;28;20047;-72
2021/12/27 05:05:15;;;;;;;111.57;51.80;;;;;;;3.53;75.05;99430.06;3146275;28;20055;-72
2021/12/27 05:06:47;;;;;;;101.63;50.50;;;;;;;3.51;75.03;99424.91;3140621;28;20048;-71
2021/12/27 05:08:19;;;;;;;107.10;52.55;;;;;;;3.45;75.10;99425.06;3146141;28;20051;-71
2021/12/27 05:09:51;;;;;;;99.43;50.47;;;;;;;3.50;75.21;99428.38;3146255;28;20051;-71
2021/12/27 05:11:24;;;;;;;104.03;50.92;;;;;;;3.50;75.07;99428.38;3146167;28;20052;-71
2021/12/27 05:12:56;;;;;;;;;;;;;;;3.28;75.37;99435.72;3146480;28;20052;-71
2021/12/27 05:14:27;;;;;;;104.97;50.03;;;;;;;3.28;75.73;99432.28;3142909;28;19932;-71
2021/12/27 05:16:00;;;;;;;101.95;52.45;;;;;;;3.33;75.49;99427.91;3146188;28;20056;-71
2021/12/27 05:17:32;;;;;;;114.63;53.20;;;;;;;3.39;75.34;99456.09;3146522;28;20138;-71
2021/12/27 05:19:04;;;;;;;104.57;52.20;;;;;;;3.38;75.39;99437.22;3141851;28;20128;-71
2021/12/27 05:20:35;;;;;;;107.18;51.75;;;;;;;3.38;75.56;99434.66;3145672;28;20055;-72
2021/12/27 05:22:07;;;;;;;103.03;50.78;;;;;;;3.42;75.42;99443.16;3144353;28;20141;-70
2021/12/27 05:23:39;;;;;;;95.28;48.33;;;;;;;3.48;75.55;99447.31;3142744;28;20348;-71
2021/12/27 05:25:15;;;;;;;94.65;48.00;;;;;;;3.50;75.48;99440.41;3142914;28;20246;-71
2021/12/27 05:26:49;;;;;;;105.25;50.67;;;;;;;3.49;75.60;99443.84;3144930;28;20679;-72
2021/12/27 05:28:21;;;;;;;98.95;48.45;;;;;;;3.51;75.56;99454.97;3147389;28;20056;-72
2021/12/27 05:29:53;;;;;;;101.55;49.05;;;;;;;3.53;75.52;99455.78;3146502;28;20044;-73
2021/12/27 05:31:25;;;;;;;102.05;52.85;;;;;;;3.42;75.43;99449.13;3142919;28;20056;-74
2021/12/27 05:32:58;;;;;;;106.85;54.80;;;;;;;3.51;75.41;99463.53;3146102;28;20082;-73
2021/12/27 05:34:30;;;;;;;107.97;52.95;;;;;;;3.52;75.42;99449.81;3144307;28;20125;-72
2021/12/27 05:36:02;;;;;;;109.60;53.90;;;;;;;3.51;75.39;99453.25;3144151;28;20044;-70
2021/12/27 05:37:34;;;;;;;102.28;51.33;;;;;;;3.26;75.35;99409.19;3146613;28;20044;-73
2021/12/27 05:39:06;;;;;;;104.93;53.13;;;;;;;3.56;75.36;99453.16;3152442;28;20052;-71
2021/12/27 05:40:38;;;;;;;104.40;52.70;;;;;;;3.55;75.31;99438.56;3156200;28;20055;-72
2021/12/27 05:42:11;;;;;;;101.93;52.53;;;;;;;3.58;75.27;99438.50;3155420;28;20047;-68
2021/12/27 05:43:43;;;;;;;105.32;52.38;;;;;;;3.60;75.33;99457.34;3154406;28;20098;-67
2021/12/27 05:45:15;;;;;;;100.80;51.67;;;;;;;3.55;75.37;99454.00;3149676;28;20121;-66
2021/12/27 05:46:47;;;;;;;102.78;51.88;;;;;;;3.53;75.25;99453.22;3151352;28;20124;-68
2021/12/27 05:48:19;;;;;;;103.53;52.05;;;;;;;3.54;75.39;99447.19;3152346;28;20152;-67
2021/12/27 05:49:51;;;;;;;112.35;52.97;;;;;;;3.53;75.25;99448.06;3152117;28;20055;-67
2021/12/27 05:51:23;;;;;;;103.95;53.53;;;;;;;3.58;75.24;99451.38;3152467;28;20084;-66
2021/12/27 05:52:55;;;;;;;105.63;52.65;;;;;;;3.60;75.21;99454.75;3153321;28;20048;-68
2021/12/27 05:54:27;;;;;;;105.93;52.95;;;;;;;3.56;75.34;99450.56;3153759;28;20055;-67
2021/12/27 05:55:59;;;;;;;105.63;55.13;;;;;;;3.42;75.29;99436.25;3155430;28;20422;-67
2021/12/27 05:57:32;;;;;;;111.70;54.60;;;;;;;3.61;75.25;99461.63;3154009;28;20052;-67
2021/12/27 05:59:04;;;;;;;106.03;53.80;;;;;;;3.61;75.31;99462.47;3157605;28;20108;-67
2021/12/27 06:00:36;;;;;;;109.88;54.83;;;;;;;3.62;75.33;99451.28;3154682;28;20089;-67
2021/12/27 06:02:08;;;;;;;101.55;52.03;;;;;;;3.35;75.28;99401.25;3158312;28;20121;-67
2021/12/27 06:03:40;;;;;;;103.18;53.13;;;;;;;3.66;75.25;99459.78;3156469;28;20043;-68
2021/12/27 06:05:13;;;;;;;109.32;52.42;;;;;;;3.65;75.28;99451.22;3157373;28;20051;-71
2021/12/27 06:06:44;;;;;;;102.63;51.17;;;;;;;3.67;75.13;99447.75;3154737;28;20484;-71
2021/12/27 06:08:16;;;;;;;106.93;54.17;;;;;;;3.73;75.11;99445.06;3157308;28;20388;-70
2021/12/27 06:09:48;;;;;;;102.97;52.33;;;;;;;3.79;75.13;99435.44;3158927;28;20085;-71
2021/12/27 06:11:20;;;;;;;104.03;51.80;;;;;;;3.49;75.06;99382.94;3157688;28;20056;-71
2021/12/27 06:12:54;;;;;;;103.65;52.83;;;;;;;3.90;74.96;99439.50;3155864;28;20052;-71
2021/12/27 06:14:26;;;;;;;102.50;49.63;;;;;;;3.91;75.03;99438.63;3158823;28;20060;-71
2021/12/27 06:15:58;;;;;;;108.13;51.78;;;;;;;3.88;74.91;99440.38;3157433;28;20117;-70
2021/12/27 06:17:32;;;;;;;106.90;51.75;;;;;;;3.93;75.02;99447.16;3154748;28;20048;-70
2021/12/27 06:19:04;;;;;;;104.70;52.90;;;;;;;3.94;74.87;99441.13;3157937;28;20083;-70
2021/12/27 06:20:35;;;;;;;102.47;51.67;;;;;;;3.99;74.81;99434.13;3156646;28;20521;-70
2021/12/27 06:22:08;;;;;;;104.05;50.97;;;;;;;4.05;74.74;99431.38;3158209;28;20101;-69
2021/12/27 06:23:40;;;;;;;106.40;51.83;;;;;;;4.04;74.75;99435.69;3161434;28;20048;-70
2021/12/27 06:25:12;;;;;;;106.93;51.58;;;;;;;4.06;74.77;99439.09;3156288;28;20057;-69
2021/12/27 06:26:44;;;;;;;110.65;54.80;;;;;;;4.04;74.66;99438.28;3158415;28;20140;-70
2021/12/27 06:28:17;;;;;;;107.25;54.05;;;;;;;4.10;74.71;99438.13;3156248;28;20432;-70
2021/12/27 06:29:49;;;;;;;114.75;55.88;;;;;;;4.09;74.60;99438.16;3156830;28;20069;-69
2021/12/27 06:31:22;;;;;;;114.03;54.35;;;;;;;4.13;74.58;99426.91;3157331;28;20494;-69
2021/12/27 06:32:54;;;;;;;117.80;57.40;;;;;;;4.24;74.37;99437.78;3156256;28;20436;-70
2021/12/27 06:34:25;;;;;;;116.90;58.58;;;;;;;4.20;74.39;99433.59;3156742;28;20133;-69
2021/12/27 06:35:57;;;;;;;122.75;57.65;;;;;;;4.34;74.15;99436.66;3156667;28;20105;-70
2021/12/27 06:37:29;;;;;;;112.85;58.03;;;;;;;4.39;74.01;99443.44;3156768;28;20433;-70
2021/12/27 06:39:04;;;;;;;111.93;55.92;;;;;;;4.39;73.91;99443.44;3157656;28;20052;-69
2021/12/27 06:40:36;;;;;;;112.65;56.47;;;;;;;4.47;73.76;99451.84;3156003;28;20051;-70
2021/12/27 06:42:08;;;;;;;119.13;55.60;;;;;;;4.47;73.80;99444.94;3155966;28;20051;-70
2021/12/27 06:43:42;;;;;;;114.47;57.43;;;;;;;4.52;73.72;99450.81;3157832;28;20052;-72
2021/12/27 06:45:14;;;;;;;109.03;55.15;;;;;;;4.50;73.84;99441.44;3157413;28;21076;-71
2021/12/27 06:46:46;;;;;;;116.93;58.63;;;;;;;4.54;73.79;99440.47;3152674;28;20546;-66
2021/12/27 06:48:18;;;;;;;119.57;56.97;;;;;;;4.55;73.64;99443.00;3157435;28;20207;-70
2021/12/27 06:49:50;;;;;;;109.45;56.00;;;;;;;4.47;73.78;99431.22;3156435;28;20063;-69
2021/12/27 06:51:22;;;;;;;108.82;54.28;;;;;;;4.59;73.79;99451.50;3156359;28;20059;-71
2021/12/27 06:52:54;;;;;;;102.22;53.58;;;;;;;4.60;73.78;99437.72;3152923;28;20618;-71
2021/12/27 06:54:26;;;;;;;113.22;55.72;;;;;;;4.73;73.60;99444.25;3151761;28;20117;-71
2021/12/27 06:55:58;;;;;;;104.93;53.90;;;;;;;4.80;73.58;99444.94;3152282;28;20120;-71
2021/12/27 06:57:31;;;;;;;107.68;53.45;;;;;;;4.87;73.33;99443.03;3152062;28;20105;-72
2021/12/27 06:59:04;;;;;;;109.77;55.27;;;;;;;4.91;73.19;99442.03;3150355;28;20052;-71
2021/12/27 07:00:36;;;;;;;107.75;53.33;;;;;;;4.93;73.14;99425.63;3151925;28;20334;-71
2021/12/27 07:02:08;;;;;;;111.63;55.20;;;;;;;5.00;72.88;99436.66;3152725;28;20362;-69
2021/12/27 07:03:40;;;;;;;106.88;52.97;;;;;;;5.09;72.77;99443.25;3150069;28;20067;-74
2021/12/27 07:05:12;;;;;;;111.82;54.10;;;;;;;5.08;72.63;99432.09;3151477;28;20044;-72
2021/12/27 07:06:44;;;;;;;119.57;57.28;;;;;;;4.93;72.58;99398.97;3153201;28;20052;-77
2021/12/27 07:08:16;;;;;;;115.25;57.03;;;;;;;4.82;72.50;99365.72;3153756;28;20048;-75